Weather at Josep Tarradellas Barcelona-El Prat Airport

Public forecast

Using degrees Celsius for public forecast. Weather courtesy of forecast.io.

Current aviation weather report (METAR) for Josep Tarradellas Barcelona-El Prat Airport

2022/11/30 10:00 (retrieved 12 minutes ago)

LEBL 301000Z 32011G21KT 9999 SCT028 BKN034 09/04 Q1017 NOSIG

Aviation forecast (TAF) for Josep Tarradellas Barcelona-El Prat Airport

2022/11/30 06:27 (retrieved 4 hours ago)

TAF LEBL 300500Z 3006/0106 33008KT 9999 FEW030 TX16/3012Z TN06/3006Z BECMG 3010/3012 21005KT BECMG 3016/3018 VRB03KT BECMG 3020/3022 33007KT